createdAt,value
2022-11-10T00:00:16.417Z,97.42
2022-11-10T00:01:16.390Z,97.53
2022-11-10T00:02:16.396Z,97.63
2022-11-10T00:03:16.367Z,97.83
2022-11-10T00:04:16.403Z,97.93
2022-11-10T00:05:16.339Z,97.73
2022-11-10T00:06:16.339Z,97.73
2022-11-10T00:07:16.309Z,97.57
2022-11-10T00:08:16.298Z,97.63
2022-11-10T00:09:16.299Z,97.63
2022-11-10T00:10:16.299Z,97.63
2022-11-10T00:11:16.281Z,97.63
2022-11-10T00:12:16.282Z,97.53
2022-11-10T00:13:16.251Z,97.53
2022-11-10T00:14:16.240Z,97.73
2022-11-10T00:15:16.230Z,97.73
2022-11-10T00:16:16.231Z,97.83
2022-11-10T00:17:16.222Z,97.93
2022-11-10T00:18:16.194Z,97.78
2022-11-10T00:19:16.211Z,97.57
2022-11-10T00:20:16.183Z,97.47
2022-11-10T00:21:16.172Z,97.47
2022-11-10T00:22:16.180Z,97.47
2022-11-10T00:23:16.155Z,97.47
2022-11-10T00:24:16.144Z,97.53
2022-11-10T00:25:16.133Z,97.57
2022-11-10T00:26:16.128Z,97.57
2022-11-10T00:27:16.093Z,97.57
2022-11-10T00:28:16.104Z,97.57
2022-11-10T00:29:16.073Z,97.37
2022-11-10T00:30:16.063Z,97.37
2022-11-10T00:31:16.062Z,97.06
2022-11-10T00:32:16.065Z,97.16
2022-11-10T00:33:16.025Z,97.16
2022-11-10T00:34:16.034Z,97.27
2022-11-10T00:35:16.012Z,96.86
2022-11-10T00:36:16.012Z,96.96
2022-11-10T00:37:16.004Z,96.96
2022-11-10T00:38:15.997Z,97.06
2022-11-10T00:39:15.976Z,96.96
2022-11-10T00:40:15.976Z,96.86
2022-11-10T00:41:15.945Z,96.86
2022-11-10T00:42:15.963Z,96.86
2022-11-10T00:43:15.936Z,96.86
2022-11-10T00:44:15.925Z,96.86
2022-11-10T00:45:15.907Z,96.86
2022-11-10T00:46:15.917Z,96.76
2022-11-10T00:47:15.887Z,96.76
2022-11-10T00:48:15.889Z,96.66
2022-11-10T00:49:15.858Z,96.45
2022-11-10T00:50:15.854Z,96.55
2022-11-10T00:51:15.855Z,96.66
2022-11-10T00:52:15.858Z,96.55
2022-11-10T00:53:15.837Z,96.55
2022-11-10T00:54:15.806Z,96.55
2022-11-10T00:55:15.809Z,96.55
2022-11-10T00:56:15.819Z,96.76
2022-11-10T00:57:15.794Z,96.80
2022-11-10T00:58:15.780Z,96.80
2022-11-10T00:59:15.769Z,96.80
2022-11-10T01:00:15.759Z,97.00
2022-11-10T01:01:15.780Z,96.80
2022-11-10T01:02:15.740Z,96.91
2022-11-10T01:03:15.708Z,96.80
2022-11-10T01:04:15.717Z,96.50
2022-11-10T01:05:15.700Z,96.60
2022-11-10T01:06:15.691Z,96.70
2022-11-10T01:07:15.734Z,96.80
2022-11-10T01:08:15.661Z,97.00
2022-11-10T01:09:15.680Z,97.00
2022-11-10T01:10:15.652Z,97.11
2022-11-10T01:11:15.632Z,97.11
2022-11-10T01:12:15.639Z,97.11
2022-11-10T01:13:15.613Z,96.91
2022-11-10T01:14:15.592Z,96.91
2022-11-10T01:15:15.594Z,96.80
2022-11-10T01:16:15.594Z,96.80
2022-11-10T01:17:15.573Z,96.80
2022-11-10T01:18:15.573Z,96.91
2022-11-10T01:19:15.534Z,97.00
2022-11-10T01:20:15.564Z,97.00
2022-11-10T01:21:15.523Z,96.95
2022-11-10T01:22:15.523Z,96.95
2022-11-10T01:23:15.484Z,97.05
2022-11-10T01:24:15.502Z,96.84
2022-11-10T01:25:15.484Z,96.95
2022-11-10T01:26:15.473Z,97.16
2022-11-10T01:27:15.493Z,97.16
2022-11-10T01:28:15.455Z,97.16
2022-11-10T01:29:15.427Z,97.16
2022-11-10T01:30:15.435Z,97.16
2022-11-10T01:31:15.416Z,97.16
2022-11-10T01:32:15.422Z,97.25
2022-11-10T01:33:15.397Z,97.25
2022-11-10T01:34:15.391Z,97.36
2022-11-10T01:35:15.377Z,97.46
2022-11-10T01:36:15.356Z,97.46
2022-11-10T01:37:15.369Z,97.50
2022-11-10T01:38:15.367Z,97.61
2022-11-10T01:39:15.328Z,97.71
2022-11-10T01:40:15.392Z,97.91
2022-11-10T01:41:15.302Z,98.02
2022-11-10T01:42:15.299Z,98.02
2022-11-10T01:43:15.289Z,98.02
2022-11-10T01:44:15.278Z,98.11
2022-11-10T01:45:15.259Z,98.02
2022-11-10T01:46:15.265Z,98.02
2022-11-10T01:47:15.239Z,98.11
2022-11-10T01:48:15.227Z,98.11
2022-11-10T01:49:15.228Z,98.22
2022-11-10T01:50:15.211Z,98.32
2022-11-10T01:51:15.207Z,98.36
2022-11-10T01:52:15.201Z,98.36
2022-11-10T01:53:15.169Z,98.36
2022-11-10T01:54:15.167Z,98.68
2022-11-10T01:55:15.181Z,98.77
2022-11-10T01:56:15.140Z,98.68
2022-11-10T01:57:15.142Z,98.77
2022-11-10T01:58:15.131Z,98.77
2022-11-10T01:59:15.111Z,98.77
2022-11-10T02:00:15.127Z,98.77
2022-11-10T02:01:15.146Z,98.88
2022-11-10T02:02:15.093Z,98.98
2022-11-10T02:03:15.060Z,98.98
2022-11-10T02:04:15.062Z,99.08
2022-11-10T02:05:15.069Z,98.98
2022-11-10T02:06:15.042Z,98.98
2022-11-10T02:07:15.103Z,98.98
2022-11-10T02:08:15.022Z,98.98
2022-11-10T02:09:15.024Z,98.98
2022-11-10T02:10:14.994Z,99.08
2022-11-10T02:11:15.008Z,99.18
2022-11-10T02:12:14.983Z,99.08
2022-11-10T02:13:14.953Z,99.13
2022-11-10T02:14:14.982Z,99.23
2022-11-10T02:15:14.942Z,99.33
2022-11-10T02:16:14.923Z,99.33
2022-11-10T02:17:14.933Z,99.33
2022-11-10T02:18:14.918Z,99.43
2022-11-10T02:19:14.895Z,99.43
2022-11-10T02:20:14.885Z,99.54
2022-11-10T02:21:14.874Z,99.54
2022-11-10T02:22:14.872Z,99.79
2022-11-10T02:23:14.875Z,99.79
2022-11-10T02:24:14.844Z,99.89
2022-11-10T02:25:14.845Z,99.89
2022-11-10T02:26:14.816Z,99.99
2022-11-10T02:27:14.813Z,99.79
2022-11-10T02:28:14.817Z,99.79
2022-11-10T02:29:14.777Z,99.79
2022-11-10T02:30:14.768Z,99.68
2022-11-10T02:31:14.786Z,99.79
2022-11-10T02:32:14.745Z,99.89
2022-11-10T02:33:14.756Z,99.99
2022-11-10T02:34:14.736Z,99.99
2022-11-10T02:35:14.729Z,99.99
2022-11-10T02:36:14.718Z,99.99
2022-11-10T02:37:14.737Z,99.99
2022-11-10T02:38:14.698Z,99.99
2022-11-10T02:39:14.687Z,99.99
2022-11-10T02:40:14.680Z,99.99
2022-11-10T02:41:14.658Z,99.99
2022-11-10T02:42:14.659Z,99.99
2022-11-10T02:43:14.649Z,99.99
2022-11-10T02:44:14.617Z,99.99
2022-11-10T02:45:14.621Z,99.99
2022-11-10T02:46:14.599Z,99.99
2022-11-10T02:47:14.598Z,99.99
2022-11-10T02:48:14.580Z,99.99
2022-11-10T02:49:14.578Z,99.99
2022-11-10T02:50:14.568Z,99.99
2022-11-10T02:51:14.539Z,99.99
2022-11-10T02:52:14.529Z,99.99
2022-11-10T02:53:14.538Z,99.99
2022-11-10T02:54:14.540Z,99.99
2022-11-10T02:55:14.511Z,99.99
2022-11-10T02:56:14.482Z,99.99
2022-11-10T02:57:14.497Z,99.99
2022-11-10T02:58:14.499Z,99.99
2022-11-10T02:59:14.521Z,99.99
2022-11-10T03:00:14.470Z,99.99
2022-11-10T03:01:14.484Z,99.99
2022-11-10T03:02:14.430Z,99.99
2022-11-10T03:03:14.450Z,99.99
2022-11-10T03:04:14.441Z,99.99
2022-11-10T03:05:14.411Z,99.99
2022-11-10T03:06:14.382Z,99.99
2022-11-10T03:07:14.403Z,99.99
2022-11-10T03:08:14.379Z,99.99
2022-11-10T03:09:14.361Z,99.99
2022-11-10T03:10:14.332Z,99.99
2022-11-10T03:11:14.331Z,99.99
2022-11-10T03:12:14.330Z,99.99
2022-11-10T03:13:14.322Z,99.99
2022-11-10T03:14:14.294Z,99.99
2022-11-10T03:15:14.282Z,99.99
2022-11-10T03:16:14.282Z,99.99
2022-11-10T03:17:14.281Z,99.99
2022-11-10T03:18:14.264Z,99.99
2022-11-10T03:19:14.261Z,99.99
2022-11-10T03:20:14.249Z,99.99
2022-11-10T03:21:14.244Z,99.99
2022-11-10T03:22:14.220Z,99.99
2022-11-10T03:23:14.215Z,99.99
2022-11-10T03:24:14.194Z,99.99
2022-11-10T03:25:14.199Z,99.99
2022-11-10T03:26:14.173Z,99.99
2022-11-10T03:27:14.185Z,99.99
2022-11-10T03:28:14.165Z,99.99
2022-11-10T03:29:14.145Z,99.99
2022-11-10T03:30:14.171Z,99.99
2022-11-10T03:31:14.155Z,99.99
2022-11-10T03:32:14.138Z,99.99
2022-11-10T03:33:14.098Z,99.99
2022-11-10T03:34:14.095Z,99.99
2022-11-10T03:35:14.086Z,99.99
2022-11-10T03:36:14.087Z,99.99
2022-11-10T03:37:14.057Z,99.99
2022-11-10T03:38:14.112Z,99.99
2022-11-10T03:39:14.034Z,99.99
2022-11-10T03:40:14.027Z,99.99
2022-11-10T03:41:21.362Z,99.99
2022-11-10T03:42:15.006Z,99.99
2022-11-10T03:43:13.978Z,99.99
2022-11-10T03:44:13.998Z,99.99
2022-11-10T03:45:13.967Z,99.99
2022-11-10T03:46:13.948Z,99.99
2022-11-10T03:47:13.941Z,99.99
2022-11-10T03:48:13.929Z,99.99
2022-11-10T03:49:13.966Z,99.99
2022-11-10T03:50:13.931Z,99.99
2022-11-10T03:51:13.935Z,99.99
2022-11-10T03:52:13.888Z,99.99
2022-11-10T03:53:13.869Z,99.99
2022-11-10T03:54:13.879Z,99.99
2022-11-10T03:55:13.868Z,99.99
2022-11-10T03:56:13.840Z,99.99
2022-11-10T03:57:13.831Z,99.99
2022-11-10T03:58:13.819Z,99.99
2022-11-10T03:59:13.800Z,99.99
2022-11-10T04:00:13.813Z,99.99
2022-11-10T04:01:13.831Z,99.99
2022-11-10T04:02:13.780Z,99.99
2022-11-10T04:03:13.760Z,99.99
2022-11-10T04:04:13.771Z,99.99
2022-11-10T04:05:13.742Z,99.99
2022-11-10T04:06:13.761Z,99.99
2022-11-10T04:07:13.849Z,99.99
2022-11-10T04:08:13.732Z,99.99
2022-11-10T04:09:13.714Z,99.99
2022-11-10T04:10:13.712Z,99.99
2022-11-10T04:11:13.694Z,99.99
2022-11-10T04:12:13.680Z,99.99
2022-11-10T04:13:13.669Z,99.99
2022-11-10T04:14:13.672Z,99.99
2022-11-10T04:15:13.643Z,99.99
2022-11-10T04:16:13.623Z,99.99
2022-11-10T04:17:13.623Z,99.99
2022-11-10T04:18:13.723Z,99.99
2022-11-10T04:19:13.644Z,99.99
2022-11-10T04:20:13.582Z,99.99
2022-11-10T04:21:13.584Z,99.99
2022-11-10T04:22:13.583Z,99.99
2022-11-10T04:23:13.573Z,99.99
2022-11-10T04:24:13.560Z,99.99
2022-11-10T04:25:13.524Z,99.99
2022-11-10T04:26:13.534Z,99.99
2022-11-10T04:27:13.526Z,99.99
2022-11-10T04:28:13.515Z,99.99
2022-11-10T04:29:13.483Z,99.99
2022-11-10T04:30:13.499Z,99.99
2022-11-10T04:31:13.465Z,99.99
2022-11-10T04:32:13.475Z,99.99
2022-11-10T04:33:13.436Z,99.99
2022-11-10T04:34:13.495Z,99.93
2022-11-10T04:35:13.427Z,99.84
2022-11-10T04:36:13.418Z,99.84
2022-11-10T04:37:13.413Z,99.84
2022-11-10T04:38:13.404Z,99.78
2022-11-10T04:39:13.396Z,99.68
2022-11-10T04:40:13.427Z,99.68
2022-11-10T04:41:13.367Z,99.57
2022-11-10T04:42:13.367Z,99.47
2022-11-10T04:43:13.357Z,99.37
2022-11-10T04:44:13.356Z,99.27
2022-11-10T04:45:13.317Z,99.27
2022-11-10T04:46:13.298Z,99.27
2022-11-10T04:47:13.305Z,99.27
2022-11-10T04:48:13.308Z,99.16
2022-11-10T04:49:13.277Z,99.21
2022-11-10T04:50:13.278Z,99.21
2022-11-10T04:51:13.326Z,99.21
2022-11-10T04:52:13.260Z,99.21
2022-11-10T04:53:13.239Z,99.21
2022-11-10T04:54:13.250Z,99.31
2022-11-10T04:55:13.208Z,99.31
2022-11-10T04:56:13.191Z,99.52
2022-11-10T04:57:13.178Z,99.52
2022-11-10T04:58:13.170Z,99.52
2022-11-10T04:59:13.195Z,99.62
2022-11-10T05:00:13.152Z,99.62
2022-11-10T05:01:13.199Z,99.62
2022-11-10T05:02:13.130Z,99.66
2022-11-10T05:03:13.121Z,99.77
2022-11-10T05:04:13.129Z,99.87
2022-11-10T05:05:13.093Z,99.87
2022-11-10T05:06:13.091Z,99.87
2022-11-10T05:07:13.117Z,99.87
2022-11-10T05:08:13.071Z,99.87
2022-11-10T05:09:13.060Z,99.87
2022-11-10T05:10:13.082Z,99.87
2022-11-10T05:11:13.064Z,99.98
2022-11-10T05:12:13.032Z,99.98
2022-11-10T05:13:13.006Z,99.98
2022-11-10T05:14:13.020Z,99.98
2022-11-10T05:15:12.994Z,99.99
2022-11-10T05:16:13.003Z,99.99
2022-11-10T05:17:12.962Z,99.99
2022-11-10T05:18:12.965Z,99.99
2022-11-10T05:19:13.035Z,99.99
2022-11-10T05:20:12.943Z,99.99
2022-11-10T05:21:12.922Z,99.99
2022-11-10T05:22:12.934Z,99.99
2022-11-10T05:23:12.913Z,99.99
2022-11-10T05:24:12.934Z,99.99
2022-11-10T05:25:12.875Z,99.99
2022-11-10T05:26:12.905Z,99.99
2022-11-10T05:27:12.864Z,99.99
2022-11-10T05:28:12.851Z,99.99
2022-11-10T05:29:12.855Z,99.99
2022-11-10T05:30:12.872Z,99.99
2022-11-10T05:31:12.829Z,99.99
2022-11-10T05:32:12.805Z,99.99
2022-11-10T05:33:12.818Z,99.99
2022-11-10T05:34:12.816Z,99.99
2022-11-10T05:35:12.784Z,99.99
2022-11-10T05:36:12.797Z,99.99
2022-11-10T05:37:12.791Z,99.99
2022-11-10T05:38:12.756Z,99.99
2022-11-10T05:39:12.759Z,99.99
2022-11-10T05:40:12.726Z,99.99
2022-11-10T05:41:12.985Z,99.99
2022-11-10T05:42:12.716Z,99.99
2022-11-10T05:43:12.686Z,99.99
2022-11-10T05:44:12.677Z,99.99
2022-11-10T05:45:12.698Z,99.99
2022-11-10T05:46:12.667Z,99.99
2022-11-10T05:47:12.668Z,99.99
2022-11-10T05:48:12.658Z,99.99
2022-11-10T05:49:12.636Z,99.99
2022-11-10T05:50:12.619Z,99.99
2022-11-10T05:51:12.639Z,99.99
2022-11-10T05:52:12.608Z,99.99
2022-11-10T05:53:12.589Z,99.99
2022-11-10T05:54:12.597Z,99.99
2022-11-10T05:55:12.557Z,99.99
2022-11-10T05:56:12.566Z,99.99
2022-11-10T05:57:12.540Z,99.99
2022-11-10T05:58:12.560Z,99.99
2022-11-10T05:59:12.519Z,99.99
2022-11-10T06:00:12.519Z,99.99
2022-11-10T06:01:12.501Z,99.99
2022-11-10T06:02:12.509Z,99.99
2022-11-10T06:03:12.876Z,99.99
2022-11-10T06:04:12.497Z,99.99
2022-11-10T06:05:12.476Z,99.99
2022-11-10T06:06:12.591Z,99.99
2022-11-10T06:07:12.489Z,99.99
2022-11-10T06:08:12.436Z,99.99
2022-11-10T06:09:12.433Z,99.99
2022-11-10T06:10:12.401Z,99.99
2022-11-10T06:11:12.401Z,99.99
2022-11-10T06:12:12.389Z,99.99
2022-11-10T06:13:12.511Z,99.99
2022-11-10T06:14:12.379Z,99.99
2022-11-10T06:15:13.470Z,99.99
2022-11-10T06:16:12.358Z,99.99
2022-11-10T06:17:13.040Z,99.99
2022-11-10T06:18:12.312Z,99.99
2022-11-10T06:19:13.021Z,99.99
2022-11-10T06:20:12.320Z,99.99
2022-11-10T06:21:12.466Z,99.99
2022-11-10T06:22:12.273Z,99.99
2022-11-10T06:23:12.253Z,99.99
2022-11-10T06:24:12.250Z,99.99
2022-11-10T06:25:12.262Z,99.99
2022-11-10T06:26:12.244Z,99.99
2022-11-10T06:27:12.213Z,99.99
2022-11-10T06:28:12.320Z,99.99
2022-11-10T06:29:12.201Z,99.99
2022-11-10T06:30:12.204Z,99.99
2022-11-10T06:31:12.211Z,99.99
2022-11-10T06:32:12.173Z,99.99
2022-11-10T06:33:12.147Z,99.99
2022-11-10T06:34:12.146Z,99.99
2022-11-10T06:35:12.154Z,99.99
2022-11-10T06:36:12.145Z,99.99
2022-11-10T06:37:12.124Z,99.99
2022-11-10T06:38:12.104Z,99.99
2022-11-10T06:39:12.105Z,99.99
2022-11-10T06:40:12.104Z,99.99
2022-11-10T06:41:12.065Z,99.99
2022-11-10T06:42:12.104Z,99.99
2022-11-10T06:43:12.034Z,99.99
2022-11-10T06:44:12.025Z,99.99
2022-11-10T06:45:12.024Z,99.99
2022-11-10T06:46:12.035Z,99.99
2022-11-10T06:47:12.015Z,99.99
2022-11-10T06:48:12.011Z,99.99
2022-11-10T06:49:11.976Z,99.99
2022-11-10T06:50:11.965Z,99.99
2022-11-10T06:51:11.998Z,99.99
2022-11-10T06:52:11.977Z,99.99
2022-11-10T06:53:11.947Z,99.99
2022-11-10T06:54:12.646Z,99.99
2022-11-10T06:55:11.927Z,99.99
2022-11-10T06:56:11.906Z,99.99
2022-11-10T06:57:11.897Z,99.99
2022-11-10T06:58:11.887Z,99.99
2022-11-10T06:59:11.874Z,99.99
2022-11-10T07:00:11.856Z,99.99
2022-11-10T07:01:11.925Z,99.99
2022-11-10T07:02:11.866Z,99.99
2022-11-10T07:03:11.837Z,99.99
2022-11-10T07:04:19.647Z,99.99
2022-11-10T07:05:12.845Z,99.99
2022-11-10T07:06:11.802Z,99.99
2022-11-10T07:07:11.868Z,99.99
2022-11-10T07:08:11.809Z,99.99
2022-11-10T07:09:11.828Z,99.99
2022-11-10T07:10:11.746Z,99.99
2022-11-10T07:11:11.748Z,99.99
2022-11-10T07:12:11.744Z,99.99
2022-11-10T07:13:11.999Z,99.99
2022-11-10T07:14:11.720Z,99.99
2022-11-10T07:15:11.696Z,99.99
2022-11-10T07:16:11.719Z,99.91
2022-11-10T07:17:11.683Z,99.91
2022-11-10T07:18:11.962Z,99.82
2022-11-10T07:19:11.658Z,99.71
2022-11-10T07:20:11.640Z,99.71
2022-11-10T07:21:11.620Z,99.61
2022-11-10T07:22:11.662Z,99.51
2022-11-10T07:23:11.610Z,99.41
2022-11-10T07:24:11.630Z,99.26
2022-11-10T07:25:11.582Z,99.20
2022-11-10T07:26:11.610Z,99.15
2022-11-10T07:27:11.592Z,99.15
2022-11-10T07:28:11.588Z,99.15
2022-11-10T07:29:11.541Z,99.15
2022-11-10T07:30:11.568Z,99.15
2022-11-10T07:31:11.542Z,99.15
2022-11-10T07:32:11.522Z,99.15
2022-11-10T07:33:11.513Z,99.26
2022-11-10T07:34:11.505Z,99.36
2022-11-10T07:35:11.473Z,99.46
2022-11-10T07:36:11.503Z,99.56
2022-11-10T07:37:11.474Z,99.66
2022-11-10T07:38:11.463Z,99.91
2022-11-10T07:39:11.433Z,99.99
2022-11-10T07:40:11.443Z,99.99
2022-11-10T07:41:11.441Z,99.99
2022-11-10T07:42:11.414Z,99.99
2022-11-10T07:43:11.403Z,99.99
2022-11-10T07:44:11.383Z,99.99
2022-11-10T07:45:11.372Z,99.99
2022-11-10T07:46:11.377Z,99.99
2022-11-10T07:47:11.344Z,99.99
2022-11-10T07:48:11.372Z,99.99
2022-11-10T07:49:11.363Z,99.99
2022-11-10T07:50:11.316Z,99.99
2022-11-10T07:51:11.325Z,99.99
2022-11-10T07:52:11.334Z,99.99
2022-11-10T07:53:11.298Z,99.99
2022-11-10T07:54:11.296Z,99.99
2022-11-10T07:55:11.283Z,99.99
2022-11-10T07:56:11.266Z,99.99
2022-11-10T07:57:39.036Z,99.99
2022-11-10T07:58:11.235Z,99.99
2022-11-10T07:59:11.233Z,99.99
2022-11-10T08:00:11.264Z,99.99
2022-11-10T08:01:11.207Z,99.99
2022-11-10T08:02:11.236Z,99.99
2022-11-10T08:03:11.216Z,99.99
2022-11-10T08:04:11.867Z,99.99
2022-11-10T08:05:11.218Z,99.99
2022-11-10T08:06:11.911Z,99.99
2022-11-10T08:07:11.295Z,99.99
2022-11-10T08:08:11.198Z,99.99
2022-11-10T08:09:11.126Z,99.99
2022-11-10T08:10:11.118Z,99.99
2022-11-10T08:11:11.097Z,99.99
2022-11-10T08:12:11.084Z,99.99
2022-11-10T08:13:11.087Z,99.99
2022-11-10T08:14:11.069Z,99.99
2022-11-10T08:15:11.059Z,99.99
2022-11-10T08:16:11.037Z,99.99
2022-11-10T08:17:11.047Z,99.99
2022-11-10T08:18:11.058Z,99.99
2022-11-10T08:19:11.066Z,99.99
2022-11-10T08:20:11.010Z,99.99
2022-11-10T08:21:10.988Z,99.99
2022-11-10T08:22:10.989Z,99.99
2022-11-10T08:23:10.979Z,99.99
2022-11-10T08:24:10.981Z,99.99
2022-11-10T08:25:10.950Z,99.99
2022-11-10T08:26:10.949Z,99.99
2022-11-10T08:27:10.930Z,99.99
2022-11-10T08:28:10.920Z,99.99
2022-11-10T08:29:10.911Z,99.99
2022-11-10T08:30:10.901Z,99.99
2022-11-10T08:31:10.892Z,99.99
2022-11-10T08:32:10.870Z,99.99
2022-11-10T08:33:10.863Z,99.99
2022-11-10T08:34:10.891Z,99.99
2022-11-10T08:35:10.850Z,99.99
2022-11-10T08:36:10.822Z,99.99
2022-11-10T08:37:10.824Z,99.99
2022-11-10T08:38:10.801Z,99.99
2022-11-10T08:39:10.814Z,99.99
2022-11-10T08:40:10.793Z,99.99
2022-11-10T08:41:10.852Z,99.99
2022-11-10T08:42:10.780Z,99.99
2022-11-10T08:43:10.746Z,99.99
2022-11-10T08:44:11.260Z,99.99
2022-11-10T08:45:10.748Z,99.99
2022-11-10T08:46:10.733Z,99.99
2022-11-10T08:47:10.710Z,99.99
2022-11-10T08:48:10.695Z,99.99
2022-11-10T08:49:10.684Z,99.99
2022-11-10T08:50:10.675Z,99.99
2022-11-10T08:51:10.675Z,98.80
2022-11-10T08:52:10.654Z,98.24
2022-11-10T08:53:10.655Z,97.63
2022-11-10T08:54:10.627Z,96.61
2022-11-10T08:55:10.627Z,95.95
2022-11-10T08:56:10.622Z,95.34
2022-11-10T08:57:10.622Z,94.21
2022-11-10T08:58:10.675Z,94.17
2022-11-10T08:59:10.655Z,92.94
2022-11-10T09:00:10.603Z,92.43
2022-11-10T09:01:10.556Z,92.08
2022-11-10T09:02:10.545Z,90.75
2022-11-10T09:03:10.565Z,90.96
2022-11-10T09:04:10.594Z,91.47
2022-11-10T09:05:10.516Z,91.37
2022-11-10T09:06:10.507Z,91.33
2022-11-10T09:07:10.555Z,91.02
2022-11-10T09:08:10.506Z,90.51
2022-11-10T09:09:10.466Z,90.00
2022-11-10T09:10:10.466Z,88.88
2022-11-10T09:11:10.445Z,88.67
2022-11-10T09:12:10.460Z,88.43
2022-11-10T09:13:10.455Z,88.63
2022-11-10T09:14:10.434Z,88.73
2022-11-10T09:15:10.398Z,88.12
2022-11-10T09:16:10.399Z,87.71
2022-11-10T09:17:10.388Z,88.02
2022-11-10T09:18:10.368Z,88.12
2022-11-10T09:19:13.162Z,88.12
2022-11-10T09:20:11.433Z,88.73
2022-11-10T09:21:10.360Z,88.53
2022-11-10T09:22:10.318Z,88.22
2022-11-10T09:23:10.309Z,87.37
2022-11-10T09:24:10.319Z,87.37
2022-11-10T09:25:10.319Z,86.04
2022-11-10T09:26:10.301Z,85.94
2022-11-10T09:27:10.288Z,86.55
2022-11-10T09:28:10.277Z,86.76
2022-11-10T09:29:10.267Z,86.55
2022-11-10T09:30:14.564Z,85.63
2022-11-10T09:31:11.250Z,85.84
2022-11-10T09:32:10.940Z,85.84
2022-11-10T09:33:10.239Z,85.22
2022-11-10T09:34:10.202Z,84.67
2022-11-10T09:35:10.191Z,85.28
2022-11-10T09:36:10.185Z,84.17
2022-11-10T09:37:10.223Z,82.64
2022-11-10T09:38:10.162Z,82.94
2022-11-10T09:39:10.161Z,81.68
2022-11-10T09:40:12.869Z,81.68
2022-11-10T09:41:10.120Z,82.09
2022-11-10T09:42:10.132Z,81.07
2022-11-10T09:43:10.091Z,80.87
2022-11-10T09:44:10.220Z,81.58
2022-11-10T09:45:10.073Z,81.17
2022-11-10T09:46:10.085Z,81.17
2022-11-10T09:47:12.329Z,80.87
2022-11-10T09:48:10.072Z,78.53
2022-11-10T09:49:10.058Z,79.61
2022-11-10T09:50:10.034Z,80.32
2022-11-10T09:51:10.044Z,80.73
2022-11-10T09:52:10.015Z,81.13
2022-11-10T09:53:09.995Z,81.24
2022-11-10T09:54:10.013Z,79.81
2022-11-10T09:55:09.974Z,80.22
2022-11-10T09:56:09.955Z,80.32
2022-11-10T09:57:09.935Z,80.38
2022-11-10T09:58:09.942Z,80.59
2022-11-10T09:59:09.953Z,79.98
2022-11-10T10:00:09.945Z,79.27
2022-11-10T10:01:09.946Z,79.98
2022-11-10T10:02:09.897Z,79.37
2022-11-10T10:03:09.877Z,79.98
2022-11-10T10:04:09.886Z,79.27
2022-11-10T10:05:09.896Z,79.06
2022-11-10T10:06:09.885Z,79.77
2022-11-10T10:07:11.394Z,79.16
2022-11-10T10:08:09.884Z,79.47
2022-11-10T10:09:09.807Z,79.57
2022-11-10T10:10:13.140Z,78.25
2022-11-10T10:11:10.806Z,78.86
2022-11-10T10:12:11.377Z,78.92
2022-11-10T10:13:09.796Z,79.43
2022-11-10T10:14:09.938Z,79.02
2022-11-10T10:15:09.772Z,78.41
2022-11-10T10:16:10.357Z,78.62
2022-11-10T10:17:09.734Z,78.62
2022-11-10T10:18:10.534Z,77.91
2022-11-10T10:19:09.729Z,76.99
2022-11-10T10:20:10.039Z,77.09
2022-11-10T10:21:09.689Z,77.50
2022-11-10T10:22:09.721Z,76.38
2022-11-10T10:23:09.710Z,76.38
2022-11-10T10:24:13.943Z,77.09
2022-11-10T10:25:10.647Z,77.40
2022-11-10T10:26:09.649Z,76.89
2022-11-10T10:27:09.638Z,75.87
2022-11-10T10:28:09.618Z,76.65
2022-11-10T10:29:09.640Z,76.45
2022-11-10T10:30:09.590Z,77.06
2022-11-10T10:31:09.580Z,76.95
2022-11-10T10:32:09.608Z,76.75
2022-11-10T10:33:09.570Z,76.25
2022-11-10T10:34:09.547Z,76.04
2022-11-10T10:35:09.562Z,76.34
2022-11-10T10:36:09.543Z,75.73
2022-11-10T10:37:09.520Z,75.73
2022-11-10T10:38:09.522Z,75.80
2022-11-10T10:39:09.496Z,76.31
2022-11-10T10:40:09.500Z,76.21
2022-11-10T10:41:09.462Z,75.80
2022-11-10T10:42:09.480Z,76.31
2022-11-10T10:43:09.463Z,76.51
2022-11-10T10:44:09.441Z,76.21
2022-11-10T10:45:09.458Z,75.60
2022-11-10T10:46:09.432Z,75.90
2022-11-10T10:47:09.484Z,76.01
2022-11-10T10:48:09.446Z,75.76
2022-11-10T10:49:27.258Z,75.56
2022-11-10T10:50:10.383Z,75.26
2022-11-10T10:51:09.383Z,75.36
2022-11-10T10:52:09.352Z,75.36
2022-11-10T10:53:09.356Z,75.73
2022-11-10T10:54:09.333Z,74.10
2022-11-10T10:55:09.344Z,73.80
2022-11-10T10:56:09.307Z,74.62
2022-11-10T10:57:09.306Z,74.21
2022-11-10T10:58:09.295Z,74.41
2022-11-10T10:59:09.265Z,74.92
2022-11-10T11:00:09.297Z,75.32
2022-11-10T11:01:09.370Z,74.48
2022-11-10T11:02:09.249Z,74.07
2022-11-10T11:03:09.226Z,74.17
2022-11-10T11:04:09.246Z,74.07
2022-11-10T11:05:09.206Z,73.57
2022-11-10T11:06:09.208Z,73.26
2022-11-10T11:07:09.329Z,72.85
2022-11-10T11:08:09.179Z,72.25
2022-11-10T11:09:09.236Z,71.91
2022-11-10T11:10:09.178Z,72.11
2022-11-10T11:11:09.178Z,71.09
2022-11-10T11:12:09.147Z,74.65
2022-11-10T11:13:09.178Z,72.21
2022-11-10T11:14:09.119Z,71.70
2022-11-10T11:15:09.115Z,71.67
2022-11-10T11:16:09.120Z,71.06
2022-11-10T11:17:09.179Z,72.08
2022-11-10T11:18:09.077Z,71.37
2022-11-10T11:19:09.781Z,70.65
2022-11-10T11:20:09.072Z,70.42
2022-11-10T11:21:09.733Z,70.42
2022-11-10T11:22:09.049Z,70.69
2022-11-10T11:23:09.142Z,70.29
2022-11-10T11:24:09.030Z,70.18
2022-11-10T11:25:09.089Z,69.14
2022-11-10T11:26:09.088Z,71.53
2022-11-10T11:27:09.182Z,68.30
2022-11-10T11:28:09.020Z,67.35
2022-11-10T11:29:09.052Z,67.02
2022-11-10T11:30:08.950Z,66.38
2022-11-10T11:31:08.994Z,66.08
2022-11-10T11:32:08.962Z,66.93
2022-11-10T11:33:09.021Z,65.78
2022-11-10T11:34:08.962Z,63.90
2022-11-10T11:35:08.904Z,61.54
2022-11-10T11:36:08.874Z,58.49
2022-11-10T11:37:13.027Z,55.09
2022-11-10T11:38:09.865Z,50.05
2022-11-10T11:39:08.851Z,48.04
2022-11-10T11:40:08.843Z,45.94
2022-11-10T11:41:08.816Z,43.60
2022-11-10T11:42:08.825Z,42.05
2022-11-10T11:43:08.803Z,40.92
2022-11-10T11:44:08.785Z,40.58
2022-11-10T11:45:08.804Z,39.97
2022-11-10T11:46:08.777Z,37.21
2022-11-10T11:47:08.758Z,34.30
2022-11-10T11:48:08.744Z,33.05
2022-11-10T11:49:08.797Z,32.92
2022-11-10T11:50:08.736Z,33.11
2022-11-10T11:51:08.727Z,32.79
2022-11-10T11:52:08.707Z,31.76
2022-11-10T11:53:08.708Z,30.17
2022-11-10T11:54:08.678Z,29.39
2022-11-10T11:55:08.662Z,29.39
2022-11-10T11:56:08.673Z,29.11
2022-11-10T11:57:08.730Z,29.77
2022-11-10T11:58:08.669Z,30.18
2022-11-10T11:59:08.630Z,30.18
2022-11-10T12:00:08.602Z,30.38
2022-11-10T12:01:08.624Z,30.88
2022-11-10T12:02:08.623Z,32.19
2022-11-10T12:03:08.610Z,31.08
2022-11-10T12:04:08.562Z,30.65
2022-11-10T12:05:08.579Z,29.92
2022-11-10T12:06:08.611Z,29.92
2022-11-10T12:07:08.682Z,29.72
2022-11-10T12:08:08.539Z,30.34
2022-11-10T12:09:08.534Z,31.25
2022-11-10T12:10:08.507Z,30.44
2022-11-10T12:11:08.505Z,30.81
2022-11-10T12:12:08.494Z,31.77
2022-11-10T12:13:08.494Z,31.70
2022-11-10T12:14:08.466Z,34.01
2022-11-10T12:15:08.486Z,35.93
2022-11-10T12:16:08.448Z,38.60
2022-11-10T12:17:08.430Z,37.70
2022-11-10T12:18:08.426Z,34.77
2022-11-10T12:19:08.428Z,34.66
2022-11-10T12:20:08.433Z,37.08
2022-11-10T12:21:08.420Z,39.87
2022-11-10T12:22:08.388Z,41.61
2022-11-10T12:23:08.369Z,41.33
2022-11-10T12:24:10.408Z,38.06
2022-11-10T12:25:08.361Z,35.33
2022-11-10T12:26:08.349Z,33.23
2022-11-10T12:27:08.321Z,31.48
2022-11-10T12:28:08.327Z,30.44
2022-11-10T12:29:08.371Z,29.02
2022-11-10T12:30:08.284Z,27.53
2022-11-10T12:31:08.281Z,26.54
2022-11-10T12:32:09.271Z,26.87
2022-11-10T12:33:08.295Z,29.54
2022-11-10T12:34:08.272Z,30.61
2022-11-10T12:35:08.245Z,30.37
2022-11-10T12:36:08.304Z,29.61
2022-11-10T12:37:08.252Z,28.00
2022-11-10T12:38:09.196Z,27.29
2022-11-10T12:39:08.215Z,27.92
2022-11-10T12:40:09.162Z,28.26
2022-11-10T12:41:08.187Z,28.25
2022-11-10T12:42:08.228Z,27.94
2022-11-10T12:43:08.212Z,27.61
2022-11-10T12:44:08.398Z,27.42
2022-11-10T12:45:08.169Z,26.78
2022-11-10T12:46:08.149Z,27.28
2022-11-10T12:47:08.179Z,27.45
2022-11-10T12:48:08.119Z,27.72
2022-11-10T12:49:08.163Z,27.11
2022-11-10T12:50:08.101Z,26.90
2022-11-10T12:51:08.103Z,26.62
2022-11-10T12:52:08.091Z,26.85